CheckWX is a tool to help pilots better visualize weather data.  It is not intended as a substitute for an official pre-flight weather briefing.

06:14:12 UTC

KBGF METAR
Winchester Municipal Airport
Winchester, Tennessee, USA
Current

19 mins ago

KBGF 220555Z AUTO 00000KT 10SM CLR 08/06 A3017 RMK A01
Observed
Apr-22 @ 05:55 UTC
Visibility
10 SM
Flight Rules
VFR
Cloud Levels
  • Clear skies
Temperature
C / 46°F
Dewpoint
C / 43°F
Humidity
87%
Altimeter
30.17" Hg
Pressure
1021.72 hPa
Previous

39 mins ago

KBGF 220535Z AUTO 00000KT 10SM CLR 09/06 A3017 RMK A01
Observed
Apr-22 @ 05:35 UTC
Visibility
10 SM
Flight Rules
VFR
Cloud Levels
  • Clear skies
Temperature
C / 48°F
Dewpoint
C / 43°F
Humidity
82%
Altimeter
30.17" Hg
Pressure
1021.72 hPa
Previous

59 mins ago

KBGF 220515Z AUTO 00000KT 10SM CLR 08/06 A3017 RMK A01
Observed
Apr-22 @ 05:15 UTC
Visibility
10 SM
Flight Rules
VFR
Cloud Levels
  • Clear skies
Temperature
C / 46°F
Dewpoint
C / 43°F
Humidity
87%
Altimeter
30.17" Hg
Pressure
1021.72 hPa